sensor_id;sensor_type;location;lat;lon;timestamp;pressure;altitude;pressure_sealevel;temperature;humidity
55675;BME280;41562;44.330;23.802;2023-02-15T00:01:07;101624.75;;;1.38;96.02
55675;BME280;41562;44.330;23.802;2023-02-15T00:03:35;101638.44;;;1.56;94.76
55675;BME280;41562;44.330;23.802;2023-02-15T00:06:03;101635.63;;;1.58;94.40
55675;BME280;41562;44.330;23.802;2023-02-15T00:08:31;101630.44;;;1.65;98.62
55675;BME280;41562;44.330;23.802;2023-02-15T00:11:06;101632.28;;;1.41;95.74
55675;BME280;41562;44.330;23.802;2023-02-15T00:13:34;101640.19;;;1.41;94.96
55675;BME280;41562;44.330;23.802;2023-02-15T00:16:03;101640.09;;;1.35;94.11
55675;BME280;41562;44.330;23.802;2023-02-15T00:18:30;101640.34;;;1.25;94.23
55675;BME280;41562;44.330;23.802;2023-02-15T00:20:58;101635.97;;;1.09;95.93
55675;BME280;41562;44.330;23.802;2023-02-15T00:23:26;101639.59;;;1.08;94.66
55675;BME280;41562;44.330;23.802;2023-02-15T00:26:09;101649.16;;;1.09;94.07
55675;BME280;41562;44.330;23.802;2023-02-15T00:28:37;101651.31;;;1.29;96.12
55675;BME280;41562;44.330;23.802;2023-02-15T00:31:06;101642.72;;;1.12;95.35
55675;BME280;41562;44.330;23.802;2023-02-15T00:33:34;101652.84;;;1.00;93.90
55675;BME280;41562;44.330;23.802;2023-02-15T00:36:03;101648.44;;;1.15;93.98
55675;BME280;41562;44.330;23.802;2023-02-15T00:38:31;101651.06;;;1.15;94.31
55675;BME280;41562;44.330;23.802;2023-02-15T00:41:01;101655.03;;;1.19;96.35
55675;BME280;41562;44.330;23.802;2023-02-15T00:43:30;101648.75;;;1.20;92.30
55675;BME280;41562;44.330;23.802;2023-02-15T00:45:58;101665.53;;;0.89;93.15
55675;BME280;41562;44.330;23.802;2023-02-15T00:48:26;101658.97;;;0.93;94.31
55675;BME280;41562;44.330;23.802;2023-02-15T00:50:55;101655.00;;;0.89;96.25
55675;BME280;41562;44.330;23.802;2023-02-15T00:53:25;101656.66;;;0.90;93.95
55675;BME280;41562;44.330;23.802;2023-02-15T00:55:56;101658.78;;;0.94;93.21
55675;BME280;41562;44.330;23.802;2023-02-15T00:58:24;101657.44;;;0.98;98.80
55675;BME280;41562;44.330;23.802;2023-02-15T01:00:52;101652.78;;;1.08;97.84
55675;BME280;41562;44.330;23.802;2023-02-15T01:03:20;101653.91;;;0.83;93.96
55675;BME280;41562;44.330;23.802;2023-02-15T01:05:48;101654.78;;;0.75;94.24
55675;BME280;41562;44.330;23.802;2023-02-15T01:08:16;101659.16;;;0.83;98.61
55675;BME280;41562;44.330;23.802;2023-02-15T01:10:43;101648.75;;;0.90;96.12
55675;BME280;41562;44.330;23.802;2023-02-15T01:13:10;101651.81;;;0.70;95.58
55675;BME280;41562;44.330;23.802;2023-02-15T01:15:38;101652.69;;;0.63;94.44
55675;BME280;41562;44.330;23.802;2023-02-15T01:18:05;101663.81;;;0.73;93.14
55675;BME280;41562;44.330;23.802;2023-02-15T01:20:35;101656.91;;;0.72;97.36
55675;BME280;41562;44.330;23.802;2023-02-15T01:23:03;101652.50;;;0.64;94.48
55675;BME280;41562;44.330;23.802;2023-02-15T01:25:33;101656.63;;;0.67;93.82
55675;BME280;41562;44.330;23.802;2023-02-15T01:28:01;101647.72;;;0.68;97.19
55675;BME280;41562;44.330;23.802;2023-02-15T01:30:28;101649.59;;;0.90;100.00
55675;BME280;41562;44.330;23.802;2023-02-15T01:32:56;101653.13;;;0.74;95.38
55675;BME280;41562;44.330;23.802;2023-02-15T01:35:24;101647.88;;;0.74;93.58
55675;BME280;41562;44.330;23.802;2023-02-15T01:37:51;101652.63;;;0.71;95.96
55675;BME280;41562;44.330;23.802;2023-02-15T01:40:19;101652.44;;;0.80;96.68
55675;BME280;41562;44.330;23.802;2023-02-15T01:42:50;101651.91;;;0.54;93.92
55675;BME280;41562;44.330;23.802;2023-02-15T01:48:21;101663.25;;;0.55;100.00
55675;BME280;41562;44.330;23.802;2023-02-15T01:50:57;101651.09;;;0.85;100.00
55675;BME280;41562;44.330;23.802;2023-02-15T01:53:35;101651.44;;;0.43;94.49
55675;BME280;41562;44.330;23.802;2023-02-15T01:56:31;101661.84;;;0.20;95.05
55675;BME280;41562;44.330;23.802;2023-02-15T01:59:06;101655.97;;;0.18;97.64
55675;BME280;41562;44.330;23.802;2023-02-15T02:01:34;101654.78;;;0.28;100.00
55675;BME280;41562;44.330;23.802;2023-02-15T02:04:18;101650.66;;;0.34;95.33
55675;BME280;41562;44.330;23.802;2023-02-15T02:06:50;101650.31;;;0.37;94.73
55675;BME280;41562;44.330;23.802;2023-02-15T02:09:18;101646.50;;;0.48;94.79
55675;BME280;41562;44.330;23.802;2023-02-15T02:11:46;101653.56;;;0.47;95.29
55675;BME280;41562;44.330;23.802;2023-02-15T02:14:16;101650.19;;;0.30;94.98
55675;BME280;41562;44.330;23.802;2023-02-15T02:25:18;101651.47;;;0.34;95.23
55675;BME280;41562;44.330;23.802;2023-02-15T02:33:25;101651.91;;;0.54;95.39
55675;BME280;41562;44.330;23.802;2023-02-15T02:38:52;101659.88;;;0.30;95.97
55675;BME280;41562;44.330;23.802;2023-02-15T02:44:04;101666.28;;;0.27;94.94
55675;BME280;41562;44.330;23.802;2023-02-15T02:46:54;101667.31;;;0.18;94.15
55675;BME280;41562;44.330;23.802;2023-02-15T02:49:35;101668.44;;;0.16;99.96
55675;BME280;41562;44.330;23.802;2023-02-15T02:52:34;101661.69;;;0.13;100.00
55675;BME280;41562;44.330;23.802;2023-02-15T02:54:55;101663.38;;;0.06;94.69
55675;BME280;41562;44.330;23.802;2023-02-15T02:57:24;101658.59;;;0.10;94.12
55675;BME280;41562;44.330;23.802;2023-02-15T02:59:55;101661.69;;;0.13;95.46
55675;BME280;41562;44.330;23.802;2023-02-15T03:02:26;101653.84;;;0.05;96.12
55675;BME280;41562;44.330;23.802;2023-02-15T03:05:02;101669.94;;;-0.06;95.59
55675;BME280;41562;44.330;23.802;2023-02-15T03:07:31;101660.44;;;-0.15;95.48
55675;BME280;41562;44.330;23.802;2023-02-15T03:10:02;101656.81;;;0.02;96.40
55675;BME280;41562;44.330;23.802;2023-02-15T03:12:39;101660.09;;;0.12;94.70
55675;BME280;41562;44.330;23.802;2023-02-15T03:15:15;101661.38;;;0.08;94.44
55675;BME280;41562;44.330;23.802;2023-02-15T03:17:46;101663.75;;;-0.13;95.34
55675;BME280;41562;44.330;23.802;2023-02-15T03:20:27;101669.97;;;-0.22;96.50
55675;BME280;41562;44.330;23.802;2023-02-15T03:23:00;101668.84;;;-0.20;95.52
55675;BME280;41562;44.330;23.802;2023-02-15T03:25:34;101670.09;;;0.00;95.96
55675;BME280;41562;44.330;23.802;2023-02-15T03:28:07;101668.91;;;0.19;94.77
55675;BME280;41562;44.330;23.802;2023-02-15T03:30:38;101662.69;;;0.20;99.10
55675;BME280;41562;44.330;23.802;2023-02-15T03:33:07;101661.38;;;0.24;96.34
55675;BME280;41562;44.330;23.802;2023-02-15T03:38:13;101663.38;;;-0.02;95.30
55675;BME280;41562;44.330;23.802;2023-02-15T03:40:45;101671.91;;;0.08;95.15
55675;BME280;41562;44.330;23.802;2023-02-15T03:45:56;101674.91;;;-0.27;95.71
55675;BME280;41562;44.330;23.802;2023-02-15T03:48:30;101676.22;;;-0.39;96.17
55675;BME280;41562;44.330;23.802;2023-02-15T03:51:02;101673.59;;;-0.39;97.50
55675;BME280;41562;44.330;23.802;2023-02-15T03:53:31;101680.31;;;-0.37;97.16
55675;BME280;41562;44.330;23.802;2023-02-15T03:55:59;101672.44;;;-0.53;96.54
55675;BME280;41562;44.330;23.802;2023-02-15T03:58:27;101674.06;;;-0.44;96.97
55675;BME280;41562;44.330;23.802;2023-02-15T04:00:59;101667.19;;;-0.53;97.18
55675;BME280;41562;44.330;23.802;2023-02-15T04:03:40;101665.72;;;-0.48;96.86
55675;BME280;41562;44.330;23.802;2023-02-15T04:06:09;101665.38;;;-0.61;96.39
55675;BME280;41562;44.330;23.802;2023-02-15T04:08:36;101673.75;;;-0.49;96.37
55675;BME280;41562;44.330;23.802;2023-02-15T04:11:03;101671.28;;;-0.18;99.60
55675;BME280;41562;44.330;23.802;2023-02-15T04:13:31;101660.94;;;5.55;84.12
55675;BME280;41562;44.330;23.802;2023-02-15T04:15:59;101670.28;;;4.77;72.01
55675;BME280;41562;44.330;23.802;2023-02-15T04:18:27;101675.75;;;2.06;81.50
55675;BME280;41562;44.330;23.802;2023-02-15T04:20:54;101667.38;;;1.19;85.74
55675;BME280;41562;44.330;23.802;2023-02-15T04:23:22;101668.78;;;0.68;87.73
55675;BME280;41562;44.330;23.802;2023-02-15T04:25:49;101660.44;;;0.56;89.25
55675;BME280;41562;44.330;23.802;2023-02-15T04:28:17;101663.28;;;0.38;92.10
55675;BME280;41562;44.330;23.802;2023-02-15T04:30:46;101671.78;;;-0.07;92.18
55675;BME280;41562;44.330;23.802;2023-02-15T04:33:13;101671.94;;;-0.24;95.08
55675;BME280;41562;44.330;23.802;2023-02-15T04:35:43;101666.69;;;-0.16;97.11
55675;BME280;41562;44.330;23.802;2023-02-15T04:38:10;101675.22;;;-0.30;95.33
55675;BME280;41562;44.330;23.802;2023-02-15T04:40:37;101676.53;;;-0.18;93.70
55675;BME280;41562;44.330;23.802;2023-02-15T04:43:05;101680.50;;;-0.14;92.76
55675;BME280;41562;44.330;23.802;2023-02-15T04:45:33;101686.38;;;0.04;94.47
55675;BME280;41562;44.330;23.802;2023-02-15T04:48:01;101690.00;;;-0.29;97.12
55675;BME280;41562;44.330;23.802;2023-02-15T04:50:32;101692.97;;;-0.41;96.50
55675;BME280;41562;44.330;23.802;2023-02-15T04:53:01;101695.56;;;-0.65;97.07
55675;BME280;41562;44.330;23.802;2023-02-15T04:55:32;101696.69;;;-0.67;96.73
55675;BME280;41562;44.330;23.802;2023-02-15T04:58:04;101702.13;;;-0.61;100.00
55675;BME280;41562;44.330;23.802;2023-02-15T05:00:37;101694.44;;;-0.54;100.00
55675;BME280;41562;44.330;23.802;2023-02-15T05:03:05;101704.44;;;-0.50;99.11
55675;BME280;41562;44.330;23.802;2023-02-15T05:05:32;101699.38;;;-0.35;97.15
55675;BME280;41562;44.330;23.802;2023-02-15T05:08:03;101698.22;;;0.00;100.00
55675;BME280;41562;44.330;23.802;2023-02-15T05:10:34;101706.47;;;-0.19;100.00
55675;BME280;41562;44.330;23.802;2023-02-15T05:13:01;101699.06;;;-0.08;100.00
55675;BME280;41562;44.330;23.802;2023-02-15T05:15:31;101706.13;;;-0.32;99.40
55675;BME280;41562;44.330;23.802;2023-02-15T05:18:01;101705.13;;;-0.23;100.00
55675;BME280;41562;44.330;23.802;2023-02-15T05:20:28;101714.31;;;-0.52;98.65
55675;BME280;41562;44.330;23.802;2023-02-15T05:22:56;101713.94;;;-0.73;99.38
55675;BME280;41562;44.330;23.802;2023-02-15T05:25:23;101712.97;;;-0.64;97.06
55675;BME280;41562;44.330;23.802;2023-02-15T05:27:50;101722.63;;;-0.72;97.08
55675;BME280;41562;44.330;23.802;2023-02-15T05:30:18;101728.88;;;-0.73;97.60
55675;BME280;41562;44.330;23.802;2023-02-15T05:32:51;101731.00;;;-0.69;97.93
55675;BME280;41562;44.330;23.802;2023-02-15T05:35:22;101741.19;;;-0.66;95.91
55675;BME280;41562;44.330;23.802;2023-02-15T05:37:52;101738.09;;;-0.53;94.97
55675;BME280;41562;44.330;23.802;2023-02-15T05:40:19;101734.50;;;-0.44;100.00
55675;BME280;41562;44.330;23.802;2023-02-15T05:42:50;101731.03;;;-0.53;99.56
55675;BME280;41562;44.330;23.802;2023-02-15T05:45:18;101735.81;;;-0.40;95.77
55675;BME280;41562;44.330;23.802;2023-02-15T05:47:46;101741.91;;;-0.39;95.20
55675;BME280;41562;44.330;23.802;2023-02-15T05:50:13;101741.41;;;-0.19;100.00
55675;BME280;41562;44.330;23.802;2023-02-15T05:52:41;101737.00;;;-0.26;99.14
55675;BME280;41562;44.330;23.802;2023-02-15T05:55:12;101740.13;;;-0.07;94.36
55675;BME280;41562;44.330;23.802;2023-02-15T05:57:45;101738.63;;;-0.09;92.72
55675;BME280;41562;44.330;23.802;2023-02-15T06:00:15;101740.28;;;0.24;92.83
55675;BME280;41562;44.330;23.802;2023-02-15T06:02:43;101751.09;;;0.37;90.60
55675;BME280;41562;44.330;23.802;2023-02-15T06:05:11;101738.88;;;0.69;88.48
55675;BME280;41562;44.330;23.802;2023-02-15T06:07:38;101751.06;;;0.54;89.15
55675;BME280;41562;44.330;23.802;2023-02-15T06:10:09;101755.34;;;0.47;89.01
55675;BME280;41562;44.330;23.802;2023-02-15T06:12:37;101753.59;;;0.94;86.83
55675;BME280;41562;44.330;23.802;2023-02-15T06:15:05;101762.00;;;1.82;83.14
55675;BME280;41562;44.330;23.802;2023-02-15T06:17:32;101756.28;;;1.93;81.58
55675;BME280;41562;44.330;23.802;2023-02-15T06:20:00;101748.88;;;2.12;81.26
55675;BME280;41562;44.330;23.802;2023-02-15T06:22:27;101750.59;;;3.01;79.15
55675;BME280;41562;44.330;23.802;2023-02-15T06:24:55;101756.09;;;3.71;74.96
55675;BME280;41562;44.330;23.802;2023-02-15T06:27:23;101747.81;;;4.02;72.81
55675;BME280;41562;44.330;23.802;2023-02-15T06:29:50;101751.84;;;3.77;78.61
55675;BME280;41562;44.330;23.802;2023-02-15T06:32:18;101747.06;;;3.66;80.38
55675;BME280;41562;44.330;23.802;2023-02-15T06:34:45;101756.00;;;3.64;74.81
55675;BME280;41562;44.330;23.802;2023-02-15T06:37:14;101752.38;;;3.66;73.62
55675;BME280;41562;44.330;23.802;2023-02-15T06:39:42;101752.16;;;3.67;74.56
55675;BME280;41562;44.330;23.802;2023-02-15T06:42:10;101754.25;;;3.72;74.76
55675;BME280;41562;44.330;23.802;2023-02-15T06:44:37;101749.91;;;3.85;74.84
55675;BME280;41562;44.330;23.802;2023-02-15T06:47:04;101762.47;;;4.26;73.80
55675;BME280;41562;44.330;23.802;2023-02-15T06:49:31;101758.81;;;4.55;71.35
55675;BME280;41562;44.330;23.802;2023-02-15T06:51:59;101764.44;;;5.14;73.72
55675;BME280;41562;44.330;23.802;2023-02-15T06:54:26;101760.34;;;5.72;68.34
55675;BME280;41562;44.330;23.802;2023-02-15T06:56:53;101757.75;;;5.24;67.96
55675;BME280;41562;44.330;23.802;2023-02-15T06:59:21;101760.00;;;5.28;68.02
55675;BME280;41562;44.330;23.802;2023-02-15T07:01:48;101757.41;;;5.47;76.85
55675;BME280;41562;44.330;23.802;2023-02-15T07:04:16;101759.91;;;5.62;69.45
55675;BME280;41562;44.330;23.802;2023-02-15T07:06:43;101759.91;;;5.62;69.45
55675;BME280;41562;44.330;23.802;2023-02-15T07:09:10;101751.34;;;5.60;69.92
55675;BME280;41562;44.330;23.802;2023-02-15T07:11:38;101752.03;;;5.28;72.92
55675;BME280;41562;44.330;23.802;2023-02-15T07:14:05;101757.88;;;5.71;69.58
55675;BME280;41562;44.330;23.802;2023-02-15T07:16:33;101767.00;;;5.42;70.00
55675;BME280;41562;44.330;23.802;2023-02-15T07:19:00;101767.28;;;5.80;69.84
55675;BME280;41562;44.330;23.802;2023-02-15T07:21:28;101771.78;;;6.71;72.25
55675;BME280;41562;44.330;23.802;2023-02-15T07:23:56;101770.09;;;7.03;65.43
55675;BME280;41562;44.330;23.802;2023-02-15T07:26:24;101765.81;;;7.47;63.16
55675;BME280;41562;44.330;23.802;2023-02-15T07:28:52;101769.56;;;7.33;62.31
55675;BME280;41562;44.330;23.802;2023-02-15T07:31:20;101764.03;;;6.76;66.18
55675;BME280;41562;44.330;23.802;2023-02-15T07:33:47;101763.44;;;6.68;65.68
55675;BME280;41562;44.330;23.802;2023-02-15T07:36:15;101758.72;;;6.76;64.67
55675;BME280;41562;44.330;23.802;2023-02-15T07:38:42;101763.22;;;6.82;64.74
55675;BME280;41562;44.330;23.802;2023-02-15T07:41:11;101756.72;;;6.45;66.23
55675;BME280;41562;44.330;23.802;2023-02-15T07:43:41;101766.50;;;6.58;64.74
55675;BME280;41562;44.330;23.802;2023-02-15T07:46:12;101767.69;;;6.95;64.25
55675;BME280;41562;44.330;23.802;2023-02-15T07:48:40;101759.94;;;6.74;63.96
55675;BME280;41562;44.330;23.802;2023-02-15T07:51:10;101758.97;;;6.49;66.10
55675;BME280;41562;44.330;23.802;2023-02-15T07:53:38;101753.66;;;7.19;63.06
55675;BME280;41562;44.330;23.802;2023-02-15T07:56:15;101757.13;;;7.96;60.78
55675;BME280;41562;44.330;23.802;2023-02-15T07:58:42;101757.31;;;9.05;57.59
55675;BME280;41562;44.330;23.802;2023-02-15T08:01:10;101757.00;;;9.32;56.29
55675;BME280;41562;44.330;23.802;2023-02-15T08:03:38;101751.56;;;9.38;55.75
55675;BME280;41562;44.330;23.802;2023-02-15T08:06:06;101756.53;;;9.53;56.25
55675;BME280;41562;44.330;23.802;2023-02-15T08:08:34;101754.31;;;9.32;56.66
55675;BME280;41562;44.330;23.802;2023-02-15T08:11:05;101751.31;;;9.58;56.02
55675;BME280;41562;44.330;23.802;2023-02-15T08:13:33;101763.38;;;9.31;55.49
55675;BME280;41562;44.330;23.802;2023-02-15T08:16:01;101754.22;;;9.08;56.94
55675;BME280;41562;44.330;23.802;2023-02-15T08:18:29;101758.06;;;8.94;58.22
55675;BME280;41562;44.330;23.802;2023-02-15T08:20:56;101760.28;;;9.15;56.83
55675;BME280;41562;44.330;23.802;2023-02-15T08:23:23;101755.41;;;8.94;56.95
55675;BME280;41562;44.330;23.802;2023-02-15T08:25:51;101758.28;;;9.11;57.03
55675;BME280;41562;44.330;23.802;2023-02-15T08:28:18;101759.56;;;8.72;58.12
55675;BME280;41562;44.330;23.802;2023-02-15T08:30:46;101748.84;;;8.54;59.30
55675;BME280;41562;44.330;23.802;2023-02-15T08:33:13;101758.69;;;8.28;60.26
55675;BME280;41562;44.330;23.802;2023-02-15T08:35:40;101751.00;;;8.45;59.78
55675;BME280;41562;44.330;23.802;2023-02-15T08:38:08;101753.19;;;8.91;58.66
55675;BME280;41562;44.330;23.802;2023-02-15T08:40:35;101757.31;;;8.87;58.12
55675;BME280;41562;44.330;23.802;2023-02-15T08:43:03;101756.16;;;8.83;58.77
55675;BME280;41562;44.330;23.802;2023-02-15T08:45:30;101752.59;;;9.07;58.73
55675;BME280;41562;44.330;23.802;2023-02-15T08:47:58;101755.13;;;8.66;58.99
55675;BME280;41562;44.330;23.802;2023-02-15T08:50:25;101749.31;;;8.69;59.04
55675;BME280;41562;44.330;23.802;2023-02-15T08:52:52;101757.78;;;8.66;60.35
55675;BME280;41562;44.330;23.802;2023-02-15T08:55:20;101753.25;;;9.03;58.84
55675;BME280;41562;44.330;23.802;2023-02-15T08:57:47;101754.78;;;8.74;59.79
55675;BME280;41562;44.330;23.802;2023-02-15T09:00:14;101745.03;;;9.22;58.55
55675;BME280;41562;44.330;23.802;2023-02-15T09:02:42;101753.16;;;9.27;58.33
55675;BME280;41562;44.330;23.802;2023-02-15T09:05:09;101748.72;;;9.21;60.02
55675;BME280;41562;44.330;23.802;2023-02-15T09:07:37;101753.13;;;9.46;60.94
55675;BME280;41562;44.330;23.802;2023-02-15T09:10:05;101743.31;;;9.58;58.93
55675;BME280;41562;44.330;23.802;2023-02-15T09:12:33;101753.25;;;9.51;59.77
55675;BME280;41562;44.330;23.802;2023-02-15T09:15:00;101747.88;;;9.39;60.62
55675;BME280;41562;44.330;23.802;2023-02-15T09:17:27;101750.94;;;9.24;61.38
55675;BME280;41562;44.330;23.802;2023-02-15T09:19:55;101751.13;;;9.71;60.07
55675;BME280;41562;44.330;23.802;2023-02-15T09:22:22;101747.66;;;9.82;60.87
55675;BME280;41562;44.330;23.802;2023-02-15T09:24:50;101747.22;;;9.85;61.15
55675;BME280;41562;44.330;23.802;2023-02-15T09:27:17;101758.81;;;10.21;58.70
55675;BME280;41562;44.330;23.802;2023-02-15T09:29:45;101756.03;;;10.39;57.94
55675;BME280;41562;44.330;23.802;2023-02-15T09:32:13;101746.84;;;10.35;57.24
55675;BME280;41562;44.330;23.802;2023-02-15T09:34:41;101753.56;;;10.26;57.55
55675;BME280;41562;44.330;23.802;2023-02-15T09:37:08;101751.59;;;10.33;58.87
55675;BME280;41562;44.330;23.802;2023-02-15T09:39:37;101752.53;;;10.27;63.64
55675;BME280;41562;44.330;23.802;2023-02-15T09:48:03;101753.91;;;10.76;58.13
55675;BME280;41562;44.330;23.802;2023-02-15T09:50:49;101748.94;;;10.68;59.22
55675;BME280;41562;44.330;23.802;2023-02-15T09:56:32;101746.81;;;10.70;58.55
55675;BME280;41562;44.330;23.802;2023-02-15T09:59:34;101730.09;;;10.51;57.66
55675;BME280;41562;44.330;23.802;2023-02-15T10:04:58;101724.84;;;10.79;59.28
55675;BME280;41562;44.330;23.802;2023-02-15T10:13:00;101710.66;;;10.79;63.76
55675;BME280;41562;44.330;23.802;2023-02-15T10:18:23;101713.50;;;10.49;59.79
55675;BME280;41562;44.330;23.802;2023-02-15T10:21:39;101702.88;;;10.66;66.22
55675;BME280;41562;44.330;23.802;2023-02-15T10:26:48;101694.19;;;10.47;61.05
55675;BME280;41562;44.330;23.802;2023-02-15T10:29:27;101688.78;;;10.70;62.37
55675;BME280;41562;44.330;23.802;2023-02-15T10:32:40;101679.50;;;11.01;62.69
55675;BME280;41562;44.330;23.802;2023-02-15T10:34:53;101681.22;;;10.79;61.23
55675;BME280;41562;44.330;23.802;2023-02-15T10:38:02;101680.56;;;10.60;62.38
55675;BME280;41562;44.330;23.802;2023-02-15T10:46:40;101668.75;;;10.84;61.73
55675;BME280;41562;44.330;23.802;2023-02-15T10:54:46;101642.78;;;11.13;61.46
55675;BME280;41562;44.330;23.802;2023-02-15T10:57:27;101640.25;;;11.07;61.97
55675;BME280;41562;44.330;23.802;2023-02-15T11:05:35;101641.03;;;11.81;60.00
55675;BME280;41562;44.330;23.802;2023-02-15T11:08:08;101633.06;;;11.86;59.67
55675;BME280;41562;44.330;23.802;2023-02-15T11:10:44;101626.38;;;11.72;58.61
55675;BME280;41562;44.330;23.802;2023-02-15T11:13:18;101624.91;;;11.64;65.20
55675;BME280;41562;44.330;23.802;2023-02-15T11:15:51;101626.41;;;11.55;61.72
55675;BME280;41562;44.330;23.802;2023-02-15T11:18:32;101617.97;;;11.63;59.97
55675;BME280;41562;44.330;23.802;2023-02-15T11:23:40;101619.50;;;11.42;61.52
55675;BME280;41562;44.330;23.802;2023-02-15T11:26:15;101616.56;;;11.60;59.93
55675;BME280;41562;44.330;23.802;2023-02-15T11:28:55;101604.63;;;11.51;61.38
55675;BME280;41562;44.330;23.802;2023-02-15T11:31:26;101606.31;;;11.57;61.89
55675;BME280;41562;44.330;23.802;2023-02-15T11:34:00;101601.88;;;11.46;60.12
55675;BME280;41562;44.330;23.802;2023-02-15T11:36:37;101608.03;;;11.63;59.74
55675;BME280;41562;44.330;23.802;2023-02-15T11:39:11;101605.94;;;11.99;58.41
55675;BME280;41562;44.330;23.802;2023-02-15T11:41:43;101607.16;;;12.73;56.92
55675;BME280;41562;44.330;23.802;2023-02-15T11:46:40;101609.44;;;12.65;59.64
55675;BME280;41562;44.330;23.802;2023-02-15T11:49:30;101596.25;;;12.36;58.35
55675;BME280;41562;44.330;23.802;2023-02-15T11:52:02;101590.69;;;12.21;57.87
55675;BME280;41562;44.330;23.802;2023-02-15T11:54:34;101592.19;;;12.12;59.72
55675;BME280;41562;44.330;23.802;2023-02-15T11:59:42;101583.03;;;12.52;58.21
55675;BME280;41562;44.330;23.802;2023-02-15T12:02:31;101582.84;;;12.58;62.16
55675;BME280;41562;44.330;23.802;2023-02-15T12:05:03;101577.16;;;12.33;59.78
55675;BME280;41562;44.330;23.802;2023-02-15T12:07:45;101567.31;;;12.38;59.35
55675;BME280;41562;44.330;23.802;2023-02-15T12:12:42;101563.66;;;12.28;63.57
55675;BME280;41562;44.330;23.802;2023-02-15T12:15:12;101563.97;;;12.09;60.55
55675;BME280;41562;44.330;23.802;2023-02-15T12:17:51;101565.56;;;11.89;59.81
55675;BME280;41562;44.330;23.802;2023-02-15T12:22:53;101561.19;;;12.21;59.74
55675;BME280;41562;44.330;23.802;2023-02-15T12:25:41;101555.41;;;12.07;58.93
55675;BME280;41562;44.330;23.802;2023-02-15T12:28:34;101555.59;;;11.67;60.77
55675;BME280;41562;44.330;23.802;2023-02-15T12:31:32;101555.59;;;11.84;59.74
55675;BME280;41562;44.330;23.802;2023-02-15T12:33:59;101549.59;;;11.77;62.98
55675;BME280;41562;44.330;23.802;2023-02-15T12:36:40;101550.22;;;11.51;61.42
55675;BME280;41562;44.330;23.802;2023-02-15T12:41:56;101553.41;;;11.48;61.54
55675;BME280;41562;44.330;23.802;2023-02-15T12:44:26;101543.50;;;11.65;61.04
55675;BME280;41562;44.330;23.802;2023-02-15T12:47:31;101538.38;;;11.63;60.11
55675;BME280;41562;44.330;23.802;2023-02-15T12:52:38;101545.53;;;11.41;60.61
55675;BME280;41562;44.330;23.802;2023-02-15T12:55:26;101548.00;;;11.43;60.66
55675;BME280;41562;44.330;23.802;2023-02-15T12:58:16;101548.31;;;11.29;60.47
55675;BME280;41562;44.330;23.802;2023-02-15T13:00:45;101553.41;;;11.14;62.49
55675;BME280;41562;44.330;23.802;2023-02-15T13:03:18;101541.75;;;11.37;61.55
55675;BME280;41562;44.330;23.802;2023-02-15T13:05:54;101543.44;;;11.10;60.52
55675;BME280;41562;44.330;23.802;2023-02-15T13:08:31;101542.16;;;10.67;60.76
55675;BME280;41562;44.330;23.802;2023-02-15T13:11:04;101548.28;;;10.96;60.00
55675;BME280;41562;44.330;23.802;2023-02-15T13:13:36;101539.13;;;11.09;61.35
55675;BME280;41562;44.330;23.802;2023-02-15T13:16:14;101538.31;;;11.08;60.32
55675;BME280;41562;44.330;23.802;2023-02-15T13:18:46;101529.81;;;11.28;59.54
55675;BME280;41562;44.330;23.802;2023-02-15T13:21:23;101522.47;;;11.07;62.83
55675;BME280;41562;44.330;23.802;2023-02-15T13:24:06;101521.19;;;10.93;61.95
55675;BME280;41562;44.330;23.802;2023-02-15T13:26:34;101529.88;;;11.16;60.40
55675;BME280;41562;44.330;23.802;2023-02-15T13:29:10;101516.00;;;11.03;61.07
55675;BME280;41562;44.330;23.802;2023-02-15T13:31:40;101526.88;;;10.96;61.63
55675;BME280;41562;44.330;23.802;2023-02-15T13:34:18;101524.84;;;11.20;61.42
55675;BME280;41562;44.330;23.802;2023-02-15T13:42:44;101524.34;;;10.89;63.84
55675;BME280;41562;44.330;23.802;2023-02-15T13:50:44;101516.00;;;11.03;62.42
55675;BME280;41562;44.330;23.802;2023-02-15T13:55:57;101515.84;;;11.09;61.86
55675;BME280;41562;44.330;23.802;2023-02-15T14:12:46;101516.25;;;11.01;65.67
55675;BME280;41562;44.330;23.802;2023-02-15T14:15:50;101511.84;;;10.78;63.07
55675;BME280;41562;44.330;23.802;2023-02-15T14:21:05;101513.38;;;10.74;63.77
55675;BME280;41562;44.330;23.802;2023-02-15T14:23:48;101515.53;;;10.61;63.91
55675;BME280;41562;44.330;23.802;2023-02-15T14:31:45;101499.72;;;10.59;64.34
55675;BME280;41562;44.330;23.802;2023-02-15T14:34:21;101506.13;;;10.58;64.75
55675;BME280;41562;44.330;23.802;2023-02-15T14:36:50;101505.38;;;10.74;64.00
55675;BME280;41562;44.330;23.802;2023-02-15T14:42:25;101508.06;;;10.91;62.94
55675;BME280;41562;44.330;23.802;2023-02-15T14:45:24;101500.41;;;10.83;63.37
55675;BME280;41562;44.330;23.802;2023-02-15T14:48:04;101507.16;;;10.57;64.67
55675;BME280;41562;44.330;23.802;2023-02-15T14:50:38;101506.72;;;10.77;63.58
55675;BME280;41562;44.330;23.802;2023-02-15T14:58:38;101507.56;;;10.49;63.20
55675;BME280;41562;44.330;23.802;2023-02-15T15:01:35;101507.28;;;10.34;63.32
55675;BME280;41562;44.330;23.802;2023-02-15T15:04:07;101511.34;;;10.25;63.49
55675;BME280;41562;44.330;23.802;2023-02-15T15:06:38;101512.19;;;10.14;62.06
55675;BME280;41562;44.330;23.802;2023-02-15T15:09:26;101504.53;;;10.05;62.15
55675;BME280;41562;44.330;23.802;2023-02-15T15:12:13;101513.25;;;10.01;61.79
55675;BME280;41562;44.330;23.802;2023-02-15T15:14:43;101517.09;;;9.93;62.57
55675;BME280;41562;44.330;23.802;2023-02-15T15:20:13;101514.47;;;10.33;61.00
55675;BME280;41562;44.330;23.802;2023-02-15T15:22:42;101519.50;;;10.06;62.95